Time;durP1;ratioP1;P1;durP2;ratioP2;P2;SDS_P1;SDS_P2;PMS_P1;PMS_P2;Temp;Humidity;BMP_temperature;BMP_pressure;BME280_temperature;BME280_humidity;BME280_pressure;Samples;Min_cycle;Max_cycle;Signal;HPM_P1;HPM_P2
2021/04/17 00:01:59;;;;;;;11.17;6.27;;;;;;;;;;4330641;33;20416;-59
2021/04/17 00:04:26;;;;;;;16.03;7.73;;;;;;;;;;4331057;33;20279;-58
2021/04/17 00:06:52;;;;;;;14.57;5.63;;;;;;;;;;4330843;33;20234;-57
2021/04/17 00:09:21;;;;;;;11.60;6.50;;;;;;;;;;4331086;33;20667;-58
2021/04/17 00:11:48;;;;;;;15.10;6.70;;;;;;;;;;4331048;33;20219;-59
2021/04/17 00:14:20;;;;;;;10.30;6.53;;;;;;;;;;4331055;33;20609;-59
2021/04/17 00:16:46;;;;;;;15.30;7.53;;;;;;;;;;4331626;33;20203;-59
2021/04/17 00:19:12;;;;;;;12.13;7.03;;;;;;;;;;4330990;33;20317;-58
2021/04/17 00:21:38;;;;;;;15.57;7.87;;;;;;;;;;4331350;33;20319;-58
2021/04/17 00:24:04;;;;;;;15.23;7.77;;;;;;;;;;4330955;33;20637;-58
2021/04/17 00:26:30;;;;;;;14.90;6.93;;;;;;;;;;4331517;33;20515;-59
2021/04/17 00:28:56;;;;;;;12.40;5.90;;;;;;;;;;4330580;33;20215;-58
2021/04/17 00:31:22;;;;;;;9.20;5.80;;;;;;;;;;4323222;33;20261;-58
2021/04/17 00:33:47;;;;;;;9.03;5.67;;;;;;;;;;4330810;33;20279;-58
2021/04/17 00:36:13;;;;;;;8.63;5.63;;;;;;;;;;4331222;33;20300;-58
2021/04/17 00:38:38;;;;;;;10.90;4.90;;;;;;;;;;4330906;33;20241;-58
2021/04/17 00:41:04;;;;;;;11.93;5.93;;;;;;;;;;4330516;33;20673;-59
2021/04/17 00:43:30;;;;;;;9.80;5.90;;;;;;;;;;4330461;33;20242;-58
2021/04/17 00:45:56;;;;;;;17.20;6.97;;;;;;;;;;4330816;33;20272;-58
2021/04/17 00:48:21;;;;;;;11.40;6.27;;;;;;;;;;4330628;33;20275;-58
2021/04/17 00:50:47;;;;;;;14.00;7.20;;;;;;;;;;4331054;33;20302;-58
2021/04/17 00:53:13;;;;;;;14.67;6.73;;;;;;;;;;4330816;33;20335;-58
2021/04/17 00:55:39;;;;;;;10.67;6.17;;;;;;;;;;4330927;33;20260;-57
2021/04/17 00:58:06;;;;;;;11.03;5.77;;;;;;;;;;4330650;33;20242;-58
2021/04/17 01:00:35;;;;;;;9.40;6.20;;;;;;;;;;4329643;33;20231;-58
2021/04/17 01:03:38;;;;;;;5.90;5.20;;;;;;;;;;4315773;33;20231;-58
2021/04/17 01:06:07;;;;;;;7.80;5.90;;;;;;;;;;4328925;33;20696;-58
2021/04/17 01:08:38;;;;;;;12.87;5.67;;;;;;;;;;4328311;33;20277;-58
2021/04/17 01:11:07;;;;;;;12.20;6.47;;;;;;;;;;4328657;33;20279;-58
2021/04/17 01:13:34;;;;;;;9.60;5.43;;;;;;;;;;4328720;33;20238;-52
2021/04/17 01:16:01;;;;;;;10.03;6.47;;;;;;;;;;4315243;33;20269;-52
2021/04/17 01:18:28;;;;;;;11.27;6.67;;;;;;;;;;4328640;33;20214;-52
2021/04/17 01:20:56;;;;;;;11.63;6.57;;;;;;;;;;4328427;33;20251;-52
2021/04/17 01:23:39;;;;;;;13.00;7.60;;;;;;;;;;4328736;33;20219;-53
2021/04/17 01:26:13;;;;;;;16.93;7.33;;;;;;;;;;4329811;33;20249;-52
2021/04/17 01:28:42;;;;;;;11.23;7.13;;;;;;;;;;4330727;33;20261;-52
2021/04/17 01:31:11;;;;;;;9.53;7.07;;;;;;;;;;4330374;33;20333;-52
2021/04/17 01:33:42;;;;;;;27.60;14.00;;;;;;;;;;4330771;33;20212;-52
2021/04/17 01:36:09;;;;;;;26.80;14.17;;;;;;;;;;4330804;33;20628;-53
2021/04/17 01:38:41;;;;;;;18.63;9.77;;;;;;;;;;4330591;33;20672;-53
2021/04/17 01:41:21;;;;;;;10.50;7.90;;;;;;;;;;4330566;33;20553;-53
2021/04/17 01:43:50;;;;;;;9.73;7.37;;;;;;;;;;4329894;33;20230;-53
2021/04/17 01:46:19;;;;;;;15.07;6.67;;;;;;;;;;4330397;33;20223;-52
2021/04/17 01:48:48;;;;;;;9.60;6.20;;;;;;;;;;4330114;33;20274;-52
2021/04/17 01:51:13;;;;;;;10.70;6.40;;;;;;;;;;4330353;33;20219;-52
2021/04/17 01:53:42;;;;;;;14.60;7.93;;;;;;;;;;4329991;33;20584;-52
2021/04/17 01:56:10;;;;;;;9.23;7.07;;;;;;;;;;4330353;33;20257;-52
2021/04/17 01:58:39;;;;;;;9.00;6.40;;;;;;;;;;4329759;33;20222;-51
2021/04/17 02:01:04;;;;;;;10.70;6.70;;;;;;;;;;4330075;33;20294;-53
2021/04/17 02:03:30;;;;;;;11.73;7.63;;;;;;;;;;4330134;33;20272;-52
2021/04/17 02:05:56;;;;;;;12.80;7.20;;;;;;;;;;4329999;33;20278;-53
2021/04/17 02:08:23;;;;;;;12.70;6.40;;;;;;;;;;4329963;33;20698;-53
2021/04/17 02:10:50;;;;;;;17.03;7.77;;;;;;;;;;4330105;33;20585;-53
2021/04/17 02:13:16;;;;;;;11.43;8.40;;;;;;;;;;4329861;33;20637;-53
2021/04/17 02:15:43;;;;;;;14.30;8.07;;;;;;;;;;4329832;33;20244;-53
2021/04/17 02:18:49;;;;;;;11.30;7.40;;;;;;;;;;4329598;33;20203;-53
2021/04/17 02:21:21;;;;;;;18.17;9.07;;;;;;;;;;4319526;33;20340;-52
2021/04/17 02:23:47;;;;;;;9.07;7.43;;;;;;;;;;4329367;33;20223;-53
2021/04/17 02:26:13;;;;;;;13.07;8.27;;;;;;;;;;4330016;33;20613;-52
2021/04/17 02:28:40;;;;;;;16.37;9.87;;;;;;;;;;4315862;33;20257;-52
2021/04/17 02:31:05;;;;;;;11.20;8.50;;;;;;;;;;4329452;33;20231;-51
2021/04/17 02:33:31;;;;;;;9.03;7.57;;;;;;;;;;4329554;33;20230;-52
2021/04/17 02:35:56;;;;;;;15.43;8.33;;;;;;;;;;4329503;33;20215;-52
2021/04/17 02:38:22;;;;;;;9.73;7.20;;;;;;;;;;4316125;33;20652;-52
2021/04/17 02:40:47;;;;;;;8.97;7.53;;;;;;;;;;4329893;33;20302;-52
2021/04/17 02:43:13;;;;;;;16.03;7.77;;;;;;;;;;4316253;33;20251;-52
2021/04/17 02:45:38;;;;;;;8.33;7.30;;;;;;;;;;4329058;33;20252;-52
2021/04/17 02:48:04;;;;;;;13.93;10.40;;;;;;;;;;4329196;33;20230;-52
2021/04/17 02:50:30;;;;;;;24.83;13.97;;;;;;;;;;4329686;33;20235;-52
2021/04/17 02:52:56;;;;;;;16.57;10.37;;;;;;;;;;4329399;33;20285;-52
2021/04/17 02:55:21;;;;;;;16.90;11.30;;;;;;;;;;4329397;33;20238;-52
2021/04/17 02:57:47;;;;;;;14.50;10.07;;;;;;;;;;4328847;33;20294;-52
2021/04/17 03:00:17;;;;;;;20.10;11.03;;;;;;;;;;4329116;33;20223;-52
2021/04/17 03:02:42;;;;;;;11.10;8.00;;;;;;;;;;4328795;33;20572;-52
2021/04/17 03:05:09;;;;;;;16.33;9.37;;;;;;;;;;4327323;33;20274;-52
2021/04/17 03:07:34;;;;;;;13.80;9.60;;;;;;;;;;4313058;33;20302;-52
2021/04/17 03:10:00;;;;;;;9.30;7.60;;;;;;;;;;4327969;33;20277;-53
2021/04/17 03:12:26;;;;;;;13.30;7.93;;;;;;;;;;4328601;33;20278;-53
2021/04/17 03:14:51;;;;;;;11.30;8.03;;;;;;;;;;4328253;33;20253;-52
2021/04/17 03:17:16;;;;;;;18.63;10.53;;;;;;;;;;4328934;33;20603;-52
2021/04/17 03:19:42;;;;;;;14.53;10.73;;;;;;;;;;4328215;33;20546;-52
2021/04/17 03:22:08;;;;;;;16.00;10.53;;;;;;;;;;4328642;33;20278;-53
2021/04/17 03:24:35;;;;;;;14.40;8.90;;;;;;;;;;4328260;33;20790;-52
2021/04/17 03:27:03;;;;;;;11.37;6.87;;;;;;;;;;4328830;33;20215;-53
2021/04/17 03:29:28;;;;;;;15.77;6.97;;;;;;;;;;4328216;33;20230;-52
2021/04/17 03:31:54;;;;;;;14.50;8.43;;;;;;;;;;4328546;33;20727;-52
2021/04/17 03:34:19;;;;;;;17.40;8.40;;;;;;;;;;4328103;33;20227;-53
2021/04/17 03:36:44;;;;;;;13.40;7.90;;;;;;;;;;4329014;33;20293;-52
2021/04/17 03:39:10;;;;;;;10.33;8.10;;;;;;;;;;4321705;33;20227;-51
2021/04/17 03:41:36;;;;;;;9.67;6.73;;;;;;;;;;4325194;33;20227;-52
2021/04/17 03:44:04;;;;;;;11.00;7.63;;;;;;;;;;4328088;33;20265;-52
2021/04/17 03:46:29;;;;;;;15.07;9.13;;;;;;;;;;4328807;33;20261;-52
2021/04/17 03:48:55;;;;;;;14.33;8.37;;;;;;;;;;4327975;33;20208;-52
2021/04/17 03:51:21;;;;;;;12.43;8.03;;;;;;;;;;4328593;33;20223;-53
2021/04/17 03:53:46;;;;;;;12.27;7.73;;;;;;;;;;4327798;33;20230;-52
2021/04/17 03:56:12;;;;;;;10.33;6.93;;;;;;;;;;4328584;33;20368;-53
2021/04/17 03:58:37;;;;;;;11.37;7.63;;;;;;;;;;4327732;33;20364;-52
2021/04/17 04:01:03;;;;;;;9.43;7.50;;;;;;;;;;4328055;33;20321;-54
2021/04/17 04:03:28;;;;;;;13.67;7.30;;;;;;;;;;4327971;33;20366;-52
2021/04/17 04:05:54;;;;;;;20.23;8.87;;;;;;;;;;4328253;33;20274;-52
2021/04/17 04:08:19;;;;;;;9.20;7.53;;;;;;;;;;4328131;33;20310;-52
2021/04/17 04:10:45;;;;;;;7.80;7.00;;;;;;;;;;4328622;33;20286;-52
2021/04/17 04:13:10;;;;;;;12.67;8.90;;;;;;;;;;4327979;33;20215;-52
2021/04/17 04:15:36;;;;;;;12.87;8.17;;;;;;;;;;4328874;33;20368;-52
2021/04/17 04:18:02;;;;;;;13.90;8.37;;;;;;;;;;4330832;33;20329;-52
2021/04/17 04:20:27;;;;;;;13.93;7.47;;;;;;;;;;4317682;33;20351;-53
2021/04/17 04:22:53;;;;;;;10.93;6.97;;;;;;;;;;4330652;33;20305;-53
2021/04/17 04:25:19;;;;;;;10.97;7.53;;;;;;;;;;4329576;33;20282;-54
2021/04/17 04:27:44;;;;;;;11.27;7.47;;;;;;;;;;4317432;33;20286;-52
2021/04/17 04:30:10;;;;;;;9.47;7.17;;;;;;;;;;4330537;33;20270;-52
2021/04/17 04:32:37;;;;;;;10.57;6.90;;;;;;;;;;4330923;33;20345;-52
2021/04/17 04:35:04;;;;;;;13.10;8.37;;;;;;;;;;4330383;33;20341;-53
2021/04/17 04:37:30;;;;;;;10.37;7.23;;;;;;;;;;4330966;33;20243;-53
2021/04/17 04:39:55;;;;;;;12.57;7.67;;;;;;;;;;4330194;33;20273;-53
2021/04/17 04:42:20;;;;;;;12.57;8.97;;;;;;;;;;4330603;33;20219;-52
2021/04/17 04:44:46;;;;;;;18.57;9.97;;;;;;;;;;4330078;33;20242;-52
2021/04/17 04:47:12;;;;;;;15.47;9.60;;;;;;;;;;4330804;33;20241;-52
2021/04/17 04:49:37;;;;;;;16.67;9.53;;;;;;;;;;4330218;33;20309;-53
2021/04/17 04:52:03;;;;;;;10.43;8.30;;;;;;;;;;4330668;33;20243;-53
2021/04/17 04:54:28;;;;;;;9.57;7.03;;;;;;;;;;4330074;33;20250;-53
2021/04/17 04:56:54;;;;;;;10.03;6.50;;;;;;;;;;4330634;33;20369;-52
2021/04/17 04:59:19;;;;;;;7.97;6.33;;;;;;;;;;4330152;33;20609;-53
2021/04/17 05:01:45;;;;;;;10.43;6.50;;;;;;;;;;4329542;33;20239;-53
2021/04/17 05:04:10;;;;;;;14.20;7.90;;;;;;;;;;4330057;33;20612;-53
2021/04/17 05:06:36;;;;;;;14.43;7.80;;;;;;;;;;4330528;33;20236;-52
2021/04/17 05:09:01;;;;;;;11.03;9.30;;;;;;;;;;4329861;33;20291;-52
2021/04/17 05:11:27;;;;;;;12.37;9.70;;;;;;;;;;4330363;33;20745;-52
2021/04/17 05:13:52;;;;;;;15.03;10.67;;;;;;;;;;4329911;33;20235;-52
2021/04/17 05:16:18;;;;;;;15.03;11.53;;;;;;;;;;4330112;33;20738;-53
2021/04/17 05:18:43;;;;;;;14.23;9.33;;;;;;;;;;4329699;33;20323;-53
2021/04/17 05:21:09;;;;;;;12.20;10.23;;;;;;;;;;4330506;33;20620;-52
2021/04/17 05:23:34;;;;;;;12.83;9.03;;;;;;;;;;4329446;33;20358;-52
2021/04/17 05:26:00;;;;;;;11.90;8.50;;;;;;;;;;4329868;33;20281;-53
2021/04/17 05:28:26;;;;;;;14.27;9.00;;;;;;;;;;4329350;33;20720;-53
2021/04/17 05:30:51;;;;;;;11.20;9.17;;;;;;;;;;4329814;33;20278;-53
2021/04/17 05:33:17;;;;;;;13.60;8.80;;;;;;;;;;4329751;33;20362;-52
2021/04/17 05:35:42;;;;;;;11.23;9.03;;;;;;;;;;4330019;33;20263;-52
2021/04/17 05:38:07;;;;;;;13.63;10.70;;;;;;;;;;4329451;33;20287;-51
2021/04/17 05:40:33;;;;;;;14.17;9.53;;;;;;;;;;4316566;33;20270;-52
2021/04/17 05:42:58;;;;;;;9.63;8.30;;;;;;;;;;4329346;33;20415;-52
2021/04/17 05:45:24;;;;;;;13.07;10.30;;;;;;;;;;4329584;33;20294;-52
2021/04/17 05:47:49;;;;;;;24.13;15.97;;;;;;;;;;4329378;33;20309;-52
2021/04/17 05:50:15;;;;;;;21.83;15.30;;;;;;;;;;4329723;33;20342;-53
2021/04/17 05:52:40;;;;;;;15.10;10.20;;;;;;;;;;4329662;33;20227;-52
2021/04/17 05:55:07;;;;;;;14.57;12.43;;;;;;;;;;4316198;33;20354;-52
2021/04/17 05:57:32;;;;;;;16.00;10.63;;;;;;;;;;4329549;33;20227;-52
2021/04/17 05:59:58;;;;;;;15.03;12.20;;;;;;;;;;4328842;33;20769;-52
2021/04/17 06:02:24;;;;;;;16.97;11.83;;;;;;;;;;4328824;33;20253;-53
2021/04/17 06:04:49;;;;;;;18.60;12.10;;;;;;;;;;4328867;33;20215;-53
2021/04/17 06:07:15;;;;;;;19.37;12.80;;;;;;;;;;4329735;33;20269;-52
2021/04/17 06:09:40;;;;;;;20.13;12.20;;;;;;;;;;4328913;33;20210;-52
2021/04/17 06:12:06;;;;;;;15.13;12.20;;;;;;;;;;4329159;33;20659;-53
2021/04/17 06:14:31;;;;;;;18.37;13.50;;;;;;;;;;4327912;33;20289;-52
2021/04/17 06:16:57;;;;;;;18.67;13.07;;;;;;;;;;4327243;33;20290;-53
2021/04/17 06:19:22;;;;;;;19.47;12.00;;;;;;;;;;4327299;33;20265;-53
2021/04/17 06:21:48;;;;;;;14.03;10.00;;;;;;;;;;4328301;33;20298;-52
2021/04/17 06:24:14;;;;;;;11.80;8.20;;;;;;;;;;4328317;33;20211;-52
2021/04/17 06:26:39;;;;;;;9.30;7.80;;;;;;;;;;4326726;33;20542;-53
2021/04/17 06:29:05;;;;;;;8.77;7.87;;;;;;;;;;4326889;33;20306;-53
2021/04/17 06:31:31;;;;;;;10.27;8.40;;;;;;;;;;4325990;33;20333;-53
2021/04/17 06:33:56;;;;;;;13.27;7.60;;;;;;;;;;4309763;33;20302;-53
2021/04/17 06:36:22;;;;;;;14.73;9.33;;;;;;;;;;4327562;33;20322;-53
2021/04/17 06:38:47;;;;;;;10.33;8.60;;;;;;;;;;4326558;33;20234;-53
2021/04/17 06:41:14;;;;;;;13.37;9.40;;;;;;;;;;4328185;33;20274;-53
2021/04/17 06:43:42;;;;;;;12.33;9.63;;;;;;;;;;4328576;33;20302;-53
2021/04/17 06:46:11;;;;;;;12.00;7.90;;;;;;;;;;4329194;33;20269;-53
2021/04/17 06:48:39;;;;;;;14.57;7.07;;;;;;;;;;4328429;33;20241;-54
2021/04/17 06:51:09;;;;;;;10.40;6.77;;;;;;;;;;4329278;33;20281;-53
2021/04/17 06:53:36;;;;;;;14.07;7.83;;;;;;;;;;4324993;33;20294;-52
2021/04/17 06:56:02;;;;;;;10.13;7.57;;;;;;;;;;4328782;33;20727;-52
2021/04/17 06:58:28;;;;;;;14.17;9.20;;;;;;;;;;4328634;33;20218;-52
2021/04/17 07:00:53;;;;;;;14.50;10.93;;;;;;;;;;4328982;33;20312;-54
2021/04/17 07:03:18;;;;;;;11.83;8.57;;;;;;;;;;4328920;33;20607;-53
2021/04/17 07:05:44;;;;;;;16.67;9.77;;;;;;;;;;4328843;33;20373;-52
2021/04/17 07:08:10;;;;;;;14.50;10.27;;;;;;;;;;4328730;33;20285;-52
2021/04/17 07:10:36;;;;;;;15.53;8.27;;;;;;;;;;4329027;33;20274;-52
2021/04/17 07:13:20;;;;;;;9.57;8.47;;;;;;;;;;4328572;33;20223;-53
2021/04/17 07:15:46;;;;;;;21.77;10.53;;;;;;;;;;4328649;33;20194;-54
2021/04/17 07:18:27;;;;;;;15.97;12.00;;;;;;;;;;4316580;33;20364;-54
2021/04/17 07:20:54;;;;;;;17.10;14.17;;;;;;;;;;4329003;33;20277;-55
2021/04/17 07:23:47;;;;;;;10.00;8.43;;;;;;;;;;4328384;33;20665;-53
2021/04/17 07:26:25;;;;;;;9.20;8.30;;;;;;;;;;4328261;33;20228;-53
2021/04/17 07:29:13;;;;;;;12.27;8.43;;;;;;;;;;4320586;33;20677;-54
2021/04/17 07:31:48;;;;;;;18.30;9.60;;;;;;;;;;4328718;33;20276;-55
2021/04/17 07:34:16;;;;;;;11.63;8.20;;;;;;;;;;4328393;33;20233;-54
2021/04/17 07:36:50;;;;;;;14.93;7.73;;;;;;;;;;4328793;33;20254;-55
2021/04/17 07:39:39;;;;;;;7.80;7.00;;;;;;;;;;4328207;33;20244;-55
2021/04/17 07:42:17;;;;;;;11.27;8.27;;;;;;;;;;4328593;33;20379;-55
2021/04/17 07:44:45;;;;;;;16.53;10.27;;;;;;;;;;4327633;33;20253;-55
2021/04/17 07:47:11;;;;;;;16.97;10.43;;;;;;;;;;4314865;33;20249;-55
2021/04/17 07:49:38;;;;;;;65.97;48.63;;;;;;;;;;4325656;33;20211;-55
2021/04/17 07:52:05;;;;;;;22.70;17.23;;;;;;;;;;4331000;33;20258;-61
2021/04/17 07:54:31;;;;;;;18.07;12.27;;;;;;;;;;4331004;33;20691;-62
2021/04/17 07:57:03;;;;;;;15.23;9.53;;;;;;;;;;4330871;33;20916;-62
2021/04/17 07:59:29;;;;;;;16.83;11.70;;;;;;;;;;4330839;33;20225;-61
2021/04/17 08:01:57;;;;;;;26.60;17.40;;;;;;;;;;4330769;33;20383;-61
2021/04/17 08:04:32;;;;;;;22.93;17.87;;;;;;;;;;4320633;33;20231;-61
2021/04/17 08:06:59;;;;;;;18.57;14.33;;;;;;;;;;4330741;33;20379;-60
2021/04/17 08:09:26;;;;;;;15.23;11.60;;;;;;;;;;4330805;33;20270;-60
2021/04/17 08:11:58;;;;;;;14.37;10.90;;;;;;;;;;4317782;33;20227;-60
2021/04/17 08:14:25;;;;;;;31.67;18.10;;;;;;;;;;4330962;33;20305;-59
2021/04/17 08:16:52;;;;;;;18.00;14.47;;;;;;;;;;4315487;33;20235;-59
2021/04/17 08:19:19;;;;;;;24.97;19.23;;;;;;;;;;4329277;33;20307;-53
2021/04/17 08:21:46;;;;;;;20.20;13.73;;;;;;;;;;4331101;33;20704;-53
2021/04/17 08:24:12;;;;;;;16.40;12.97;;;;;;;;;;4330952;33;20203;-52
2021/04/17 08:26:39;;;;;;;15.50;12.53;;;;;;;;;;4330989;33;20254;-55
2021/04/17 08:29:04;;;;;;;11.03;8.03;;;;;;;;;;4329990;33;20317;-53
2021/04/17 08:31:38;;;;;;;8.83;7.80;;;;;;;;;;4330714;33;20412;-53
2021/04/17 08:34:20;;;;;;;17.37;12.67;;;;;;;;;;4310730;33;20277;-53
2021/04/17 08:37:04;;;;;;;12.33;10.60;;;;;;;;;;4330638;33;20242;-54
2021/04/17 08:39:35;;;;;;;12.87;11.10;;;;;;;;;;4328481;33;20706;-54
2021/04/17 08:42:03;;;;;;;14.63;11.13;;;;;;;;;;4330650;33;20280;-54
2021/04/17 08:44:32;;;;;;;14.07;11.07;;;;;;;;;;4329875;33;20269;-54
2021/04/17 08:46:58;;;;;;;8.60;7.10;;;;;;;;;;4330560;33;20302;-56
2021/04/17 08:49:29;;;;;;;12.37;7.53;;;;;;;;;;4329986;33;20207;-54
2021/04/17 08:52:23;;;;;;;9.80;8.77;;;;;;;;;;4330427;33;20807;-54
2021/04/17 08:54:54;;;;;;;9.87;7.93;;;;;;;;;;4330073;33;20495;-54
2021/04/17 08:57:21;;;;;;;15.17;9.77;;;;;;;;;;4330271;33;20236;-54
2021/04/17 08:59:59;;;;;;;13.27;9.00;;;;;;;;;;4316593;33;20331;-53
2021/04/17 09:02:27;;;;;;;9.73;8.67;;;;;;;;;;4329724;33;20281;-53
2021/04/17 09:05:07;;;;;;;10.30;8.20;;;;;;;;;;4329682;33;20267;-53
2021/04/17 09:07:38;;;;;;;15.17;9.53;;;;;;;;;;4330242;33;20215;-54
2021/04/17 09:10:22;;;;;;;13.47;9.77;;;;;;;;;;4329969;33;20203;-53
2021/04/17 09:12:47;;;;;;;16.20;11.93;;;;;;;;;;4329923;33;20227;-54
2021/04/17 09:15:13;;;;;;;16.37;12.93;;;;;;;;;;4329863;33;20286;-55
2021/04/17 09:17:41;;;;;;;21.67;13.70;;;;;;;;;;4329761;33;20219;-52
2021/04/17 09:20:12;;;;;;;21.67;13.23;;;;;;;;;;4328053;33;20215;-53
2021/04/17 09:22:37;;;;;;;20.33;16.33;;;;;;;;;;4329947;33;20336;-54
2021/04/17 09:25:12;;;;;;;32.30;19.17;;;;;;;;;;4329759;33;20274;-63
2021/04/17 09:27:40;;;;;;;34.93;21.33;;;;;;;;;;4329726;33;20302;-62
2021/04/17 09:30:17;;;;;;;31.13;21.23;;;;;;;;;;4328118;33;20207;-56
2021/04/17 09:33:12;;;;;;;55.37;27.50;;;;;;;;;;4329520;33;20297;-55
2021/04/17 09:35:38;;;;;;;36.60;23.87;;;;;;;;;;4324699;33;20239;-56
2021/04/17 09:38:11;;;;;;;31.10;23.07;;;;;;;;;;4329331;33;20249;-57
2021/04/17 09:40:52;;;;;;;24.00;17.50;;;;;;;;;;4329549;33;20265;-56
2021/04/17 09:43:33;;;;;;;33.83;22.97;;;;;;;;;;4329136;33;20642;-56
2021/04/17 09:46:02;;;;;;;30.63;22.63;;;;;;;;;;4329368;33;20254;-56
2021/04/17 09:48:38;;;;;;;42.73;29.23;;;;;;;;;;4329251;33;20290;-56
2021/04/17 09:51:03;;;;;;;39.90;25.23;;;;;;;;;;4328749;33;20676;-56
2021/04/17 09:53:30;;;;;;;30.00;19.70;;;;;;;;;;4329048;33;20289;-56
2021/04/17 09:56:01;;;;;;;18.40;15.90;;;;;;;;;;4329595;33;20274;-56
2021/04/17 09:58:35;;;;;;;19.70;16.17;;;;;;;;;;4327546;33;20350;-55
2021/04/17 10:01:15;;;;;;;23.43;17.90;;;;;;;;;;4307089;33;20298;-55
2021/04/17 10:03:43;;;;;;;19.17;16.07;;;;;;;;;;4307158;33;20235;-55
2021/04/17 10:06:34;;;;;;;17.43;15.53;;;;;;;;;;4325380;33;20364;-56
2021/04/17 10:09:06;;;;;;;22.93;15.70;;;;;;;;;;4322367;33;20326;-56
2021/04/17 10:11:32;;;;;;;19.00;16.07;;;;;;;;;;4329147;33;20280;-56
2021/04/17 10:13:57;;;;;;;21.40;17.33;;;;;;;;;;4328388;33;20397;-56
2021/04/17 10:16:26;;;;;;;42.77;25.50;;;;;;;;;;4329303;33;20696;-56
2021/04/17 10:18:52;;;;;;;39.27;23.40;;;;;;;;;;4318948;33;20286;-56
2021/04/17 10:21:26;;;;;;;46.00;25.17;;;;;;;;;;4325512;33;20554;-56
2021/04/17 10:24:13;;;;;;;32.03;20.93;;;;;;;;;;4321539;33;20206;-55
2021/04/17 10:27:03;;;;;;;25.37;17.97;;;;;;;;;;4329478;33;20219;-56
2021/04/17 10:29:53;;;;;;;30.67;20.67;;;;;;;;;;4328552;33;20560;-56
2021/04/17 10:32:27;;;;;;;25.23;18.93;;;;;;;;;;4325018;33;20705;-56
2021/04/17 10:35:15;;;;;;;58.50;36.50;;;;;;;;;;4327413;33;20226;-56
2021/04/17 10:37:47;;;;;;;104.93;51.73;;;;;;;;;;4328557;33;20266;-55
2021/04/17 10:40:13;;;;;;;63.77;33.77;;;;;;;;;;4326452;33;20215;-56
2021/04/17 10:42:53;;;;;;;185.43;81.57;;;;;;;;;;4328914;33;20305;-56
2021/04/17 10:45:38;;;;;;;52.47;30.17;;;;;;;;;;4324967;33;20418;-55
2021/04/17 10:48:05;;;;;;;36.40;26.83;;;;;;;;;;4314031;33;20573;-55
2021/04/17 10:50:38;;;;;;;32.50;24.07;;;;;;;;;;4320225;33;20333;-55
2021/04/17 10:53:09;;;;;;;33.23;26.77;;;;;;;;;;4328361;33;20243;-55
2021/04/17 10:55:48;;;;;;;32.27;25.83;;;;;;;;;;4327809;33;20328;-56
2021/04/17 10:58:32;;;;;;;87.70;53.43;;;;;;;;;;4325750;33;20238;-55
2021/04/17 11:01:00;;;;;;;98.13;54.90;;;;;;;;;;4327857;33;20685;-55
2021/04/17 11:03:28;;;;;;;47.60;35.30;;;;;;;;;;4327152;33;20363;-55
2021/04/17 11:05:58;;;;;;;49.30;38.30;;;;;;;;;;4314630;33;20235;-55
2021/04/17 11:08:28;;;;;;;54.27;38.93;;;;;;;;;;4327918;33;20277;-55
2021/04/17 11:10:54;;;;;;;44.17;31.27;;;;;;;;;;4327935;33;20249;-56
2021/04/17 11:13:33;;;;;;;59.13;38.63;;;;;;;;;;4327862;33;20357;-53
2021/04/17 11:15:59;;;;;;;49.13;37.67;;;;;;;;;;4328403;33;20235;-54
2021/04/17 11:18:50;;;;;;;96.33;58.67;;;;;;;;;;4327931;33;20321;-53
2021/04/17 11:21:16;;;;;;;33.83;24.03;;;;;;;;;;4327979;33;20215;-53
2021/04/17 11:24:00;;;;;;;30.17;24.27;;;;;;;;;;4327933;33;20288;-53
2021/04/17 11:26:28;;;;;;;39.37;29.40;;;;;;;;;;4327433;33;20232;-54
2021/04/17 11:28:59;;;;;;;62.77;41.73;;;;;;;;;;4327485;33;20207;-53
2021/04/17 11:31:30;;;;;;;61.47;44.47;;;;;;;;;;4328060;33;20627;-54
2021/04/17 11:33:58;;;;;;;49.90;38.43;;;;;;;;;;4314448;33;20317;-53
2021/04/17 11:36:26;;;;;;;52.03;37.97;;;;;;;;;;4314152;33;20683;-53
2021/04/17 11:38:51;;;;;;;53.90;38.83;;;;;;;;;;4327419;33;20199;-53
2021/04/17 11:41:17;;;;;;;56.77;42.77;;;;;;;;;;4327890;33;20316;-55
2021/04/17 11:43:43;;;;;;;49.20;35.27;;;;;;;;;;4324706;33;20310;-54
2021/04/17 11:46:15;;;;;;;50.13;36.70;;;;;;;;;;4323800;33;20273;-54
2021/04/17 11:48:42;;;;;;;52.07;37.90;;;;;;;;;;4325999;33;20231;-54
2021/04/17 11:51:08;;;;;;;48.00;34.97;;;;;;;;;;4325536;33;20216;-53
2021/04/17 11:53:34;;;;;;;88.40;61.43;;;;;;;;;;4325633;33;20242;-54
2021/04/17 11:56:00;;;;;;;60.87;36.40;;;;;;;;;;4326032;33;20697;-54
2021/04/17 11:58:26;;;;;;;37.63;31.70;;;;;;;;;;4326875;33;20231;-54
2021/04/17 12:00:51;;;;;;;47.50;29.53;;;;;;;;;;4328071;33;20362;-54
2021/04/17 12:03:23;;;;;;;43.20;32.83;;;;;;;;;;4327483;33;20364;-54
2021/04/17 12:05:50;;;;;;;57.20;35.57;;;;;;;;;;4325737;33;20243;-54
2021/04/17 12:08:16;;;;;;;59.67;42.43;;;;;;;;;;4326963;33;20310;-53
2021/04/17 12:10:43;;;;;;;56.80;41.20;;;;;;;;;;4326955;33;20265;-54
2021/04/17 12:13:08;;;;;;;54.53;38.87;;;;;;;;;;4327565;33;20534;-54
2021/04/17 12:15:35;;;;;;;51.00;35.00;;;;;;;;;;4326566;33;20452;-55
2021/04/17 12:18:00;;;;;;;45.57;33.90;;;;;;;;;;4327232;33;20215;-54
2021/04/17 12:20:26;;;;;;;48.90;35.40;;;;;;;;;;4327674;33;20637;-55
2021/04/17 12:22:51;;;;;;;45.87;33.77;;;;;;;;;;4327299;33;20345;-53
2021/04/17 12:25:18;;;;;;;47.47;33.03;;;;;;;;;;4327493;33;20312;-54
2021/04/17 12:27:44;;;;;;;29.40;18.97;;;;;;;;;;4313834;33;20235;-54
2021/04/17 12:30:10;;;;;;;65.53;44.43;;;;;;;;;;4327545;33;20640;-54
2021/04/17 12:32:36;;;;;;;61.90;43.50;;;;;;;;;;4327779;33;20234;-53
2021/04/17 12:35:02;;;;;;;68.63;43.33;;;;;;;;;;4327275;33;20368;-55
2021/04/17 12:37:28;;;;;;;58.20;43.43;;;;;;;;;;4327451;33;20250;-54
2021/04/17 12:39:54;;;;;;;61.23;37.03;;;;;;;;;;4329834;33;20253;-54
2021/04/17 12:42:19;;;;;;;57.17;39.93;;;;;;;;;;4330123;33;20401;-54
2021/04/17 12:44:45;;;;;;;65.20;42.67;;;;;;;;;;4329813;33;20344;-55
2021/04/17 12:47:11;;;;;;;66.63;44.80;;;;;;;;;;4329899;33;20243;-55
2021/04/17 12:49:37;;;;;;;59.50;40.50;;;;;;;;;;4329999;33;20224;-55
2021/04/17 12:52:03;;;;;;;60.33;40.23;;;;;;;;;;4330066;33;20211;-55
2021/04/17 12:54:29;;;;;;;53.40;39.13;;;;;;;;;;4329790;33;20289;-55
2021/04/17 12:56:54;;;;;;;51.27;39.03;;;;;;;;;;4329917;33;20381;-54
2021/04/17 12:59:20;;;;;;;86.93;60.17;;;;;;;;;;4330071;33;20286;-55
2021/04/17 13:01:46;;;;;;;66.13;45.20;;;;;;;;;;4330588;33;20742;-54
2021/04/17 13:04:11;;;;;;;64.63;40.73;;;;;;;;;;4330195;33;20293;-55
2021/04/17 13:06:37;;;;;;;66.43;47.20;;;;;;;;;;4330127;33;20353;-54
2021/04/17 13:09:03;;;;;;;76.33;49.87;;;;;;;;;;4330399;33;20211;-54
2021/04/17 13:11:28;;;;;;;94.13;64.20;;;;;;;;;;4330578;33;20274;-55
2021/04/17 13:13:54;;;;;;;85.80;55.93;;;;;;;;;;4330298;33;20344;-54
2021/04/17 13:16:19;;;;;;;74.00;52.63;;;;;;;;;;4330856;33;20329;-54
2021/04/17 13:18:45;;;;;;;76.57;51.93;;;;;;;;;;4330471;33;20278;-54
2021/04/17 13:21:10;;;;;;;74.67;53.77;;;;;;;;;;4330458;33;20714;-55
2021/04/17 13:23:37;;;;;;;88.23;63.30;;;;;;;;;;4330395;33;20345;-54
2021/04/17 13:26:03;;;;;;;79.87;57.00;;;;;;;;;;4317064;33;20223;-55
2021/04/17 13:28:29;;;;;;;86.03;55.50;;;;;;;;;;4329472;33;20302;-55
2021/04/17 13:30:54;;;;;;;75.80;52.57;;;;;;;;;;4316769;33;20314;-55
2021/04/17 13:33:20;;;;;;;77.30;49.00;;;;;;;;;;4330397;33;20717;-55
2021/04/17 13:35:46;;;;;;;79.30;52.60;;;;;;;;;;4329217;33;20638;-56
2021/04/17 13:38:11;;;;;;;72.17;49.33;;;;;;;;;;4330232;33;20625;-55
2021/04/17 13:40:40;;;;;;;70.73;49.53;;;;;;;;;;4330336;33;20417;-54
2021/04/17 13:43:05;;;;;;;68.40;51.60;;;;;;;;;;4329497;33;20309;-55
2021/04/17 13:45:31;;;;;;;87.07;55.53;;;;;;;;;;4329113;33;20298;-54
2021/04/17 13:47:56;;;;;;;94.47;66.37;;;;;;;;;;4329653;33;20631;-55
2021/04/17 13:50:22;;;;;;;91.80;65.83;;;;;;;;;;4329624;33;20789;-54
2021/04/17 13:52:47;;;;;;;119.93;77.20;;;;;;;;;;4330213;33;20716;-53
2021/04/17 13:55:13;;;;;;;82.23;60.60;;;;;;;;;;4330179;33;20750;-54
2021/04/17 13:57:39;;;;;;;76.90;53.27;;;;;;;;;;4329738;33;20575;-54
2021/04/17 14:00:06;;;;;;;81.47;56.97;;;;;;;;;;4330236;33;20290;-54
2021/04/17 14:02:32;;;;;;;86.77;60.13;;;;;;;;;;4328184;33;20281;-53
2021/04/17 14:04:57;;;;;;;61.97;41.50;;;;;;;;;;4329029;33;20796;-54
2021/04/17 14:07:23;;;;;;;62.07;43.87;;;;;;;;;;4328448;33;20231;-54
2021/04/17 14:09:48;;;;;;;65.03;46.50;;;;;;;;;;4328728;33;20319;-54
2021/04/17 14:12:14;;;;;;;71.07;49.53;;;;;;;;;;4328569;33;20315;-55
2021/04/17 14:14:40;;;;;;;67.10;49.07;;;;;;;;;;4329530;33;20314;-55
2021/04/17 14:17:06;;;;;;;66.33;46.93;;;;;;;;;;4328965;33;20227;-55
2021/04/17 14:19:32;;;;;;;70.00;51.30;;;;;;;;;;4316795;33;20253;-56
2021/04/17 14:21:57;;;;;;;72.60;52.83;;;;;;;;;;4330053;33;20749;-57
2021/04/17 14:24:23;;;;;;;75.77;52.83;;;;;;;;;;4329349;33;20278;-55
2021/04/17 14:26:49;;;;;;;76.77;52.37;;;;;;;;;;4328963;33;20251;-56
2021/04/17 14:29:14;;;;;;;70.60;48.77;;;;;;;;;;4329452;33;20352;-55
2021/04/17 14:31:40;;;;;;;65.03;49.30;;;;;;;;;;4329170;33;20297;-55